createdAt,value
2022-10-13T00:01:20.349Z,68.00
2022-10-13T00:03:48.430Z,67.70
2022-10-13T00:06:24.754Z,60.80
2022-10-13T00:08:54.104Z,70.00
2022-10-13T00:11:26.224Z,59.30
2022-10-13T00:14:03.135Z,61.10
2022-10-13T00:16:32.979Z,71.40
2022-10-13T00:19:01.215Z,62.70
2022-10-13T00:21:29.665Z,55.70
2022-10-13T00:24:00.037Z,61.60
2022-10-13T00:26:28.172Z,71.70
2022-10-13T00:28:56.979Z,62.90
2022-10-13T00:31:28.319Z,66.90
2022-10-13T00:33:58.917Z,65.70
2022-10-13T00:36:27.748Z,64.40
2022-10-13T00:38:57.160Z,62.70
2022-10-13T00:41:25.643Z,61.00
2022-10-13T00:44:06.278Z,66.80
2022-10-13T00:46:37.232Z,60.20
2022-10-13T00:49:11.928Z,64.40
2022-10-13T00:51:46.576Z,61.90
2022-10-13T00:54:20.703Z,58.40
2022-10-13T00:56:50.914Z,58.20
2022-10-13T00:59:27.128Z,59.20
2022-10-13T01:01:57.622Z,55.60
2022-10-13T01:04:29.782Z,56.40
2022-10-13T01:06:58.222Z,55.50
2022-10-13T01:09:26.832Z,63.20
2022-10-13T01:12:26.880Z,51.60
2022-10-13T01:15:10.447Z,54.30
2022-10-13T01:17:56.684Z,49.90
2022-10-13T01:20:48.945Z,53.50
2022-10-13T01:23:55.895Z,57.90
2022-10-13T01:26:42.047Z,52.90
2022-10-13T01:29:31.849Z,57.30
2022-10-13T01:32:09.993Z,53.50
2022-10-13T01:35:00.743Z,53.70
2022-10-13T01:37:34.705Z,54.90
2022-10-13T01:40:10.553Z,54.70
2022-10-13T01:43:04.851Z,54.40
2022-10-13T01:45:47.479Z,58.80
2022-10-13T01:48:18.113Z,56.90
2022-10-13T01:50:52.599Z,55.30
2022-10-13T01:53:21.887Z,59.90
2022-10-13T01:56:00.044Z,55.80
2022-10-13T01:58:32.828Z,53.10
2022-10-13T02:01:05.077Z,53.70
2022-10-13T02:03:41.952Z,55.00
2022-10-13T02:06:21.430Z,50.50
2022-10-13T02:09:08.114Z,56.30
2022-10-13T02:11:39.191Z,54.80
2022-10-13T02:14:18.489Z,56.80
2022-10-13T02:16:49.414Z,57.90
2022-10-13T02:19:19.111Z,51.00
2022-10-13T02:21:48.401Z,52.00
2022-10-13T02:24:16.983Z,54.30
2022-10-13T02:26:45.635Z,58.70
2022-10-13T02:29:16.081Z,51.30
2022-10-13T02:31:45.789Z,50.40
2022-10-13T02:34:14.922Z,53.20
2022-10-13T02:36:46.263Z,54.60
2022-10-13T02:39:15.104Z,50.50
2022-10-13T02:41:43.137Z,47.60
2022-10-13T02:44:11.074Z,53.30
2022-10-13T02:46:42.159Z,51.10
2022-10-13T02:49:10.632Z,51.40
2022-10-13T02:51:40.348Z,51.00
2022-10-13T02:54:08.885Z,50.20
2022-10-13T02:56:37.130Z,52.90
2022-10-13T02:59:05.256Z,45.80
2022-10-13T03:01:33.434Z,48.00
2022-10-13T03:04:01.430Z,49.80
2022-10-13T03:06:29.474Z,53.60
2022-10-13T03:08:57.591Z,55.50
2022-10-13T03:11:27.897Z,50.60
2022-10-13T03:13:55.895Z,51.90
2022-10-13T03:16:23.681Z,48.20
2022-10-13T03:18:52.237Z,46.10
2022-10-13T03:21:20.303Z,46.00
2022-10-13T03:23:48.582Z,51.00
2022-10-13T03:26:16.910Z,51.40
2022-10-13T03:28:50.005Z,49.00
2022-10-13T03:31:18.835Z,44.60
2022-10-13T03:33:48.769Z,54.50
2022-10-13T03:36:17.008Z,54.20
2022-10-13T03:38:48.141Z,51.80
2022-10-13T03:41:19.019Z,47.40
2022-10-13T03:43:50.820Z,47.00
2022-10-13T03:46:19.331Z,50.10
2022-10-13T03:48:48.348Z,49.10
2022-10-13T03:51:19.183Z,49.30
2022-10-13T03:53:48.485Z,47.80
2022-10-13T03:56:27.174Z,49.80
2022-10-13T03:58:58.112Z,53.60
2022-10-13T04:01:29.578Z,50.40
2022-10-13T04:03:59.538Z,50.70
2022-10-13T04:06:27.519Z,53.10
2022-10-13T04:08:55.981Z,53.30
2022-10-13T04:11:24.382Z,46.60
2022-10-13T04:13:53.201Z,49.70
2022-10-13T04:16:24.591Z,53.10
2022-10-13T04:18:59.124Z,46.70
2022-10-13T04:21:29.602Z,42.20
2022-10-13T04:23:58.862Z,48.00
2022-10-13T04:26:29.915Z,49.60
2022-10-13T04:28:59.796Z,51.50
2022-10-13T04:31:29.792Z,46.50
2022-10-13T04:33:58.855Z,47.40
2022-10-13T04:36:27.453Z,51.80
2022-10-13T04:38:55.926Z,45.80
2022-10-13T04:41:24.550Z,45.20
2022-10-13T04:43:55.282Z,43.20
2022-10-13T04:46:27.616Z,47.20
2022-10-13T04:48:58.643Z,46.50
2022-10-13T04:51:31.269Z,45.40
2022-10-13T04:54:01.917Z,46.20
2022-10-13T04:56:30.745Z,55.30
2022-10-13T04:59:06.101Z,51.00
2022-10-13T05:01:36.413Z,43.60
2022-10-13T05:04:07.650Z,53.50
2022-10-13T05:06:58.907Z,51.70
2022-10-13T05:09:28.540Z,52.50
2022-10-13T05:11:57.488Z,53.80
2022-10-13T05:14:26.081Z,53.10
2022-10-13T05:16:55.803Z,58.40
2022-10-13T05:19:24.439Z,54.20
2022-10-13T05:21:53.013Z,52.40
2022-10-13T05:24:31.113Z,60.60
2022-10-13T05:26:59.073Z,61.00
2022-10-13T05:29:27.534Z,56.60
2022-10-13T05:31:55.551Z,53.30
2022-10-13T05:34:23.682Z,64.80
2022-10-13T05:36:51.814Z,61.60
2022-10-13T05:39:20.047Z,59.90
2022-10-13T05:41:47.891Z,53.50
2022-10-13T05:44:21.948Z,49.20
2022-10-13T05:46:57.054Z,46.80
2022-10-13T05:49:25.072Z,45.70
2022-10-13T05:51:59.853Z,43.70
2022-10-13T05:54:36.958Z,46.40
2022-10-13T05:57:11.025Z,49.80
2022-10-13T05:59:45.612Z,47.90
2022-10-13T06:02:17.202Z,51.00
2022-10-13T06:04:49.372Z,56.60
2022-10-13T06:07:17.604Z,49.50
2022-10-13T06:09:46.566Z,55.10
2022-10-13T06:12:14.722Z,52.10
2022-10-13T06:14:45.653Z,49.70
2022-10-13T06:17:14.680Z,46.90
2022-10-13T06:19:46.209Z,50.80
2022-10-13T06:22:15.684Z,54.30
2022-10-13T06:24:47.331Z,53.50
2022-10-13T06:27:16.716Z,50.40
2022-10-13T06:29:45.936Z,48.40
2022-10-13T06:32:14.519Z,47.60
2022-10-13T06:34:43.014Z,51.20
2022-10-13T06:37:12.065Z,55.10
2022-10-13T06:39:41.239Z,62.50
2022-10-13T06:42:10.434Z,66.20
2022-10-13T06:44:42.830Z,60.00
2022-10-13T06:47:13.676Z,63.50
2022-10-13T06:49:41.618Z,62.60
2022-10-13T06:52:13.427Z,65.70
2022-10-13T06:54:42.503Z,58.00
2022-10-13T06:57:10.502Z,62.10
2022-10-13T06:59:38.262Z,66.20
2022-10-13T07:02:06.563Z,58.60
2022-10-13T07:04:35.105Z,60.20
2022-10-13T07:07:03.644Z,62.60
2022-10-13T07:09:31.996Z,56.90
2022-10-13T07:12:01.095Z,57.30
2022-10-13T07:14:30.030Z,53.70
2022-10-13T07:16:58.221Z,55.70
2022-10-13T07:19:26.597Z,57.90
2022-10-13T07:21:55.222Z,56.90
2022-10-13T07:24:25.339Z,45.70
2022-10-13T07:26:53.530Z,42.70
2022-10-13T07:29:22.016Z,40.40
2022-10-13T07:31:51.171Z,39.60
2022-10-13T07:34:19.136Z,40.90
2022-10-13T07:36:46.947Z,42.00
2022-10-13T07:39:14.988Z,42.90
2022-10-13T07:41:45.466Z,44.00
2022-10-13T07:44:17.034Z,38.00
2022-10-13T07:46:45.223Z,33.90
2022-10-13T07:49:16.164Z,46.20
2022-10-13T07:51:45.000Z,42.60
2022-10-13T07:54:13.602Z,42.10
2022-10-13T07:56:42.216Z,35.10
2022-10-13T07:59:11.436Z,38.50
2022-10-13T08:01:41.350Z,37.20
2022-10-13T08:04:09.544Z,45.20
2022-10-13T08:06:37.856Z,41.10
2022-10-13T08:09:10.162Z,42.10
2022-10-13T08:11:38.829Z,36.50
2022-10-13T08:14:06.849Z,38.40
2022-10-13T08:16:35.278Z,43.70
2022-10-13T08:19:03.262Z,36.00
2022-10-13T08:24:20.603Z,47.10
2022-10-13T08:26:49.875Z,43.40
2022-10-13T08:29:23.101Z,38.20
2022-10-13T08:31:53.932Z,32.10
2022-10-13T08:34:23.845Z,33.40
2022-10-13T08:36:54.835Z,31.00
2022-10-13T08:39:25.361Z,31.40
2022-10-13T08:42:00.528Z,31.40
2022-10-13T08:47:45.287Z,31.30
2022-10-13T08:50:18.018Z,31.70
2022-10-13T08:53:06.571Z,27.50
2022-10-13T08:55:40.720Z,26.70
2022-10-13T08:58:22.914Z,28.50
2022-10-13T09:01:10.720Z,29.60
2022-10-13T09:03:51.631Z,27.50
2022-10-13T09:06:32.081Z,34.20
2022-10-13T09:09:07.422Z,29.30
2022-10-13T09:11:39.488Z,27.20
2022-10-13T09:14:11.262Z,26.80
2022-10-13T09:16:44.541Z,33.20
2022-10-13T09:19:17.827Z,31.30
2022-10-13T09:21:46.058Z,27.40
2022-10-13T09:24:17.624Z,27.50
2022-10-13T09:26:47.696Z,53.80
2022-10-13T09:29:26.909Z,30.20
2022-10-13T09:32:14.327Z,28.30
2022-10-13T09:34:42.815Z,32.60
2022-10-13T09:37:20.572Z,27.90
2022-10-13T09:40:19.688Z,24.90
2022-10-13T09:42:53.123Z,27.50
2022-10-13T09:45:25.050Z,28.00
2022-10-13T09:48:01.357Z,25.30
2022-10-13T09:50:32.074Z,25.50
2022-10-13T09:53:20.075Z,25.20
2022-10-13T09:55:49.814Z,27.00
2022-10-13T09:58:27.873Z,28.30
2022-10-13T10:00:57.695Z,27.70
2022-10-13T10:03:35.818Z,41.80
2022-10-13T10:06:08.142Z,24.60
2022-10-13T10:09:04.698Z,29.30
2022-10-13T10:11:41.565Z,26.00
2022-10-13T10:14:27.972Z,24.80
2022-10-13T10:17:07.113Z,30.70
2022-10-13T10:19:48.993Z,22.00
2022-10-13T10:22:32.241Z,23.80
2022-10-13T10:25:00.264Z,27.20
2022-10-13T10:28:22.763Z,23.90
2022-10-13T10:31:05.324Z,28.60
2022-10-13T10:33:53.138Z,28.60
2022-10-13T10:36:34.677Z,26.10
2022-10-13T10:39:08.592Z,34.60
2022-10-13T10:42:03.985Z,27.20
2022-10-13T10:44:39.862Z,26.10
2022-10-13T10:47:43.648Z,26.10
2022-10-13T10:50:15.990Z,30.40
2022-10-13T10:53:01.773Z,24.70
2022-10-13T10:55:54.104Z,25.50
2022-10-13T10:58:34.347Z,23.90
2022-10-13T11:01:14.804Z,23.10
2022-10-13T11:03:51.914Z,21.70
2022-10-13T11:06:46.595Z,23.60
2022-10-13T11:09:14.742Z,20.00
2022-10-13T11:11:46.873Z,26.30
2022-10-13T11:14:25.625Z,33.00
2022-10-13T11:17:06.165Z,23.10
2022-10-13T11:19:39.111Z,24.50
2022-10-13T11:22:15.358Z,22.40
2022-10-13T11:24:47.426Z,27.10
2022-10-13T11:27:17.267Z,27.50
2022-10-13T11:29:55.187Z,30.90
2022-10-13T11:32:41.901Z,24.90
2022-10-13T11:35:11.194Z,26.90
2022-10-13T11:38:17.580Z,21.30
2022-10-13T11:41:05.939Z,25.50
2022-10-13T11:44:00.611Z,24.70
2022-10-13T11:47:00.539Z,27.70
2022-10-13T11:49:44.365Z,23.10
2022-10-13T11:52:43.356Z,22.60
2022-10-13T11:55:17.728Z,26.20
2022-10-13T11:57:46.796Z,22.40
2022-10-13T12:00:19.487Z,25.50
2022-10-13T12:02:51.317Z,23.50
2022-10-13T12:05:31.759Z,23.90
2022-10-13T12:08:05.101Z,24.80
2022-10-13T12:10:36.497Z,28.60
2022-10-13T12:13:08.420Z,27.70
2022-10-13T12:15:38.148Z,29.40
2022-10-13T12:18:28.369Z,23.40
2022-10-13T12:20:59.111Z,19.90
2022-10-13T12:23:33.616Z,22.80
2022-10-13T12:26:02.728Z,23.00
2022-10-13T12:28:48.627Z,24.10
2022-10-13T12:31:29.259Z,22.40
2022-10-13T12:34:03.123Z,22.00
2022-10-13T12:36:34.834Z,23.20
2022-10-13T12:39:06.591Z,24.30
2022-10-13T12:41:42.520Z,20.80
2022-10-13T12:44:16.679Z,23.50
2022-10-13T12:46:53.735Z,24.80
2022-10-13T12:49:26.025Z,21.00
2022-10-13T12:52:04.257Z,24.50
2022-10-13T12:54:41.286Z,24.40
2022-10-13T12:57:35.523Z,25.00
2022-10-13T13:00:06.097Z,24.80
2022-10-13T13:02:34.680Z,29.30
2022-10-13T13:05:03.527Z,22.60
2022-10-13T13:07:35.572Z,18.90
2022-10-13T13:10:04.025Z,22.00
2022-10-13T13:12:32.505Z,20.40
2022-10-13T13:15:25.118Z,26.10
2022-10-13T13:17:59.090Z,24.50
2022-10-13T13:20:32.803Z,22.90
2022-10-13T13:23:01.038Z,25.50
2022-10-13T13:25:29.240Z,22.90
2022-10-13T13:27:57.940Z,24.80
2022-10-13T13:30:26.524Z,20.50
2022-10-13T13:32:58.102Z,26.80
2022-10-13T13:35:27.905Z,26.00
2022-10-13T13:37:56.447Z,23.80
2022-10-13T13:40:27.963Z,34.20
2022-10-13T13:42:57.051Z,26.50
2022-10-13T13:45:28.560Z,20.00
2022-10-13T13:48:00.508Z,17.60
2022-10-13T13:50:35.159Z,18.10
2022-10-13T13:53:05.199Z,20.90
2022-10-13T13:55:34.305Z,18.80
2022-10-13T13:58:02.892Z,17.30
2022-10-13T14:00:32.091Z,17.60
2022-10-13T14:03:02.034Z,24.70
2022-10-13T14:05:33.217Z,23.10
2022-10-13T14:08:02.702Z,20.20
2022-10-13T14:10:31.150Z,20.40
2022-10-13T14:13:02.127Z,30.80
2022-10-13T14:15:32.087Z,22.60
2022-10-13T14:18:00.633Z,19.10
2022-10-13T14:20:33.238Z,18.40
2022-10-13T14:23:03.744Z,17.50
2022-10-13T14:25:33.921Z,19.00
2022-10-13T14:28:03.257Z,19.60
2022-10-13T14:30:34.976Z,31.90
2022-10-13T14:33:05.991Z,49.90
2022-10-13T14:35:37.255Z,28.30
2022-10-13T14:38:09.167Z,23.30
2022-10-13T14:40:42.683Z,35.70
2022-10-13T14:43:11.804Z,23.60
2022-10-13T14:45:41.270Z,22.20
2022-10-13T14:48:16.028Z,27.60
2022-10-13T14:50:44.867Z,22.60
2022-10-13T14:53:18.833Z,25.20
2022-10-13T14:55:47.620Z,18.60
2022-10-13T14:58:17.384Z,18.30
2022-10-13T15:00:46.571Z,24.50
2022-10-13T15:03:15.151Z,37.90
2022-10-13T15:05:43.665Z,26.20
2022-10-13T15:08:12.811Z,34.10
2022-10-13T15:10:41.127Z,31.70
2022-10-13T15:13:11.537Z,37.30
2022-10-13T15:15:46.397Z,19.80
2022-10-13T15:18:14.320Z,23.70
2022-10-13T15:20:50.214Z,19.80
2022-10-13T15:23:21.043Z,18.60
2022-10-13T15:26:01.461Z,22.10
2022-10-13T15:28:36.654Z,31.50
2022-10-13T15:31:06.109Z,28.00
2022-10-13T15:33:35.870Z,33.30
2022-10-13T15:36:04.841Z,46.00
2022-10-13T15:38:35.242Z,73.20
2022-10-13T15:41:05.665Z,82.20
2022-10-13T15:43:35.218Z,64.10
2022-10-13T15:46:06.461Z,56.00
2022-10-13T15:48:35.759Z,60.10
2022-10-13T15:51:14.683Z,81.30
2022-10-13T15:53:43.331Z,71.90
2022-10-13T15:56:11.598Z,87.20
2022-10-13T15:58:39.766Z,99.70
2022-10-13T16:01:14.000Z,66.30
2022-10-13T16:03:43.466Z,64.10
2022-10-13T16:06:13.919Z,106.30
2022-10-13T16:08:44.839Z,107.80
2022-10-13T16:11:17.857Z,105.90
2022-10-13T16:13:50.979Z,125.00
2022-10-13T16:16:19.859Z,131.30
2022-10-13T16:18:48.576Z,128.70
2022-10-13T16:21:26.247Z,113.50
2022-10-13T16:23:55.780Z,111.20
2022-10-13T16:26:26.169Z,133.10
2022-10-13T16:29:01.342Z,162.20
2022-10-13T16:31:31.459Z,183.40
2022-10-13T16:34:00.763Z,204.00
2022-10-13T16:36:31.347Z,257.50
2022-10-13T16:39:00.856Z,152.30
2022-10-13T16:41:30.051Z,93.10
2022-10-13T16:44:00.646Z,99.80
2022-10-13T16:46:28.981Z,116.40
2022-10-13T16:48:57.466Z,124.80
2022-10-13T16:51:29.761Z,103.90
2022-10-13T16:54:03.946Z,93.20
2022-10-13T16:56:32.954Z,86.80
2022-10-13T16:59:06.716Z,76.50
2022-10-13T17:01:38.318Z,78.60
2022-10-13T17:04:07.815Z,80.70
2022-10-13T17:06:39.727Z,103.50
2022-10-13T17:09:08.473Z,103.40
2022-10-13T17:11:37.968Z,112.30
2022-10-13T17:14:07.222Z,111.50
2022-10-13T17:16:39.026Z,123.30
2022-10-13T17:19:08.054Z,129.20
2022-10-13T17:21:38.007Z,127.80
2022-10-13T17:24:07.809Z,121.00
2022-10-13T17:26:37.447Z,118.10
2022-10-13T17:29:08.660Z,108.60
2022-10-13T17:31:41.694Z,112.30
2022-10-13T17:34:10.557Z,126.80
2022-10-13T17:36:39.895Z,121.30
2022-10-13T17:39:11.885Z,110.60
2022-10-13T17:41:41.554Z,103.00
2022-10-13T17:44:11.683Z,135.40
2022-10-13T17:47:27.712Z,132.90
2022-10-13T17:49:58.869Z,113.40
2022-10-13T17:52:28.696Z,123.20
2022-10-13T17:54:57.695Z,139.40
2022-10-13T17:57:30.748Z,124.00
2022-10-13T18:00:07.514Z,128.70
2022-10-13T18:02:43.670Z,135.80
2022-10-13T18:05:13.000Z,150.30
2022-10-13T18:07:45.084Z,157.40
2022-10-13T18:10:18.227Z,170.30
2022-10-13T18:12:46.639Z,161.50
2022-10-13T18:15:19.011Z,151.50
2022-10-13T18:17:50.604Z,153.80
2022-10-13T18:20:20.780Z,159.30
2022-10-13T18:22:54.447Z,182.30
2022-10-13T18:25:25.077Z,147.80
2022-10-13T18:27:54.571Z,144.70
2022-10-13T18:30:28.306Z,130.90
2022-10-13T18:32:59.792Z,122.80
2022-10-13T18:35:34.989Z,120.00
2022-10-13T18:38:06.738Z,119.20
2022-10-13T18:40:41.890Z,121.50
2022-10-13T18:43:14.265Z,112.90
2022-10-13T18:45:44.203Z,117.40
2022-10-13T18:48:14.303Z,138.00
2022-10-13T18:50:43.840Z,139.20
2022-10-13T18:53:20.500Z,127.30
2022-10-13T18:55:53.056Z,128.30
2022-10-13T18:58:24.690Z,130.80
2022-10-13T19:01:09.768Z,127.40
2022-10-13T19:03:43.057Z,117.10
2022-10-13T19:06:17.964Z,121.10
2022-10-13T19:08:50.805Z,118.00
2022-10-13T19:11:26.044Z,122.00
2022-10-13T19:13:55.588Z,124.30
2022-10-13T19:16:30.862Z,94.40
2022-10-13T19:18:59.750Z,89.10
2022-10-13T19:21:29.272Z,89.00
2022-10-13T19:24:00.614Z,95.00
2022-10-13T19:26:32.547Z,98.10
2022-10-13T19:29:09.057Z,86.80
2022-10-13T19:31:39.782Z,86.70
2022-10-13T19:34:12.926Z,90.60
2022-10-13T19:36:45.994Z,89.30
2022-10-13T19:39:39.421Z,92.20
2022-10-13T19:42:11.544Z,89.70
2022-10-13T19:44:43.317Z,87.80
2022-10-13T19:47:11.547Z,99.20
2022-10-13T19:49:40.019Z,107.20
2022-10-13T19:52:08.572Z,94.80
2022-10-13T19:54:40.598Z,90.50
2022-10-13T19:57:09.450Z,99.40
2022-10-13T19:59:37.986Z,106.70
2022-10-13T20:02:09.817Z,105.60
2022-10-13T20:04:38.635Z,82.10
2022-10-13T20:07:08.044Z,81.60
2022-10-13T20:09:39.046Z,92.90
2022-10-13T20:12:07.446Z,91.30
2022-10-13T20:14:38.333Z,86.70
2022-10-13T20:17:06.554Z,85.30
2022-10-13T20:19:34.985Z,93.20
2022-10-13T20:22:03.349Z,88.20
2022-10-13T20:24:31.760Z,92.00
2022-10-13T20:27:02.283Z,100.30
2022-10-13T20:29:31.336Z,110.70
2022-10-13T20:31:59.698Z,106.60
2022-10-13T20:34:28.248Z,105.00
2022-10-13T20:36:56.588Z,104.50
2022-10-13T20:39:24.495Z,96.70
2022-10-13T20:41:52.847Z,96.20
2022-10-13T20:44:21.420Z,96.60
2022-10-13T20:46:51.160Z,99.20
2022-10-13T20:49:24.080Z,124.80
2022-10-13T20:51:52.672Z,99.50
2022-10-13T20:54:21.641Z,99.40
2022-10-13T20:56:52.935Z,83.10
2022-10-13T20:59:21.301Z,98.10
2022-10-13T21:01:49.775Z,116.20
2022-10-13T21:04:18.473Z,104.40
2022-10-13T21:06:46.873Z,99.20
2022-10-13T21:09:15.393Z,103.70
2022-10-13T21:11:45.336Z,86.20
2022-10-13T21:14:14.208Z,79.20
2022-10-13T21:16:45.154Z,94.70
2022-10-13T21:19:15.675Z,86.30
2022-10-13T21:21:44.876Z,76.80
2022-10-13T21:24:14.229Z,76.80
2022-10-13T21:26:43.729Z,85.10
2022-10-13T21:29:17.673Z,91.50
2022-10-13T21:31:46.197Z,89.70
2022-10-13T21:34:14.577Z,93.20
2022-10-13T21:36:46.969Z,77.50
2022-10-13T21:39:18.864Z,84.40
2022-10-13T21:41:47.590Z,84.40
2022-10-13T21:44:16.201Z,90.50
2022-10-13T21:46:44.268Z,83.50
2022-10-13T21:49:12.453Z,90.70
2022-10-13T21:51:41.457Z,87.50
2022-10-13T21:54:11.740Z,86.80
2022-10-13T21:56:40.275Z,86.60
2022-10-13T21:59:08.992Z,80.70
2022-10-13T22:01:36.797Z,79.70
2022-10-13T22:04:13.218Z,80.50
2022-10-13T22:06:42.189Z,83.00
2022-10-13T22:09:10.793Z,84.40
2022-10-13T22:11:39.215Z,82.40
2022-10-13T22:14:11.722Z,95.90
2022-10-13T22:16:42.794Z,88.90
2022-10-13T22:19:11.354Z,85.70
2022-10-13T22:21:45.488Z,94.20
2022-10-13T22:24:22.146Z,94.90
2022-10-13T22:26:50.707Z,98.50
2022-10-13T22:29:21.147Z,91.00
2022-10-13T22:31:54.791Z,93.70
2022-10-13T22:34:23.514Z,95.70
2022-10-13T22:36:51.633Z,102.30
2022-10-13T22:39:19.388Z,110.00
2022-10-13T22:41:48.295Z,131.00
2022-10-13T22:44:16.130Z,138.40
2022-10-13T22:46:44.166Z,137.10
2022-10-13T22:49:14.971Z,131.80
2022-10-13T22:51:43.096Z,123.60
2022-10-13T22:54:11.170Z,123.50
2022-10-13T22:56:40.664Z,111.00
2022-10-13T22:59:09.704Z,103.80
2022-10-13T23:01:38.832Z,105.60
2022-10-13T23:04:06.714Z,109.80
2022-10-13T23:06:35.728Z,105.10
2022-10-13T23:09:07.008Z,97.20
2022-10-13T23:11:35.983Z,86.80
2022-10-13T23:14:07.025Z,83.10
2022-10-13T23:16:38.141Z,80.00
2022-10-13T23:19:06.588Z,66.10
2022-10-13T23:21:35.114Z,69.90
2022-10-13T23:24:06.748Z,89.20
2022-10-13T23:26:35.321Z,85.10
2022-10-13T23:29:05.481Z,72.50
2022-10-13T23:31:33.526Z,88.60
2022-10-13T23:34:01.923Z,89.40
2022-10-13T23:36:32.674Z,92.70
2022-10-13T23:39:06.642Z,78.70
2022-10-13T23:41:38.813Z,75.70
2022-10-13T23:44:06.997Z,80.60
2022-10-13T23:46:35.240Z,78.60
2022-10-13T23:49:03.728Z,77.10
2022-10-13T23:51:32.139Z,84.30
2022-10-13T23:54:00.573Z,92.50
2022-10-13T23:56:28.575Z,100.50
2022-10-13T23:58:56.350Z,92.10
